sensor_id;sensor_type;location;lat;lon;timestamp;pressure;altitude;pressure_sealevel;temperature;humidity
10824;BME280;39116;59.332;18.034;2023-04-26T00:00:04;99579.06;;;7.45;100.00
10824;BME280;39116;59.332;18.034;2023-04-26T00:02:28;99572.13;;;7.35;100.00
10824;BME280;39116;59.332;18.034;2023-04-26T00:04:50;99572.13;;;7.39;100.00
10824;BME280;39116;59.332;18.034;2023-04-26T00:07:16;99573.00;;;7.46;100.00
10824;BME280;39116;59.332;18.034;2023-04-26T00:09:38;99568.69;;;7.42;100.00
10824;BME280;39116;59.332;18.034;2023-04-26T00:12:04;99566.09;;;7.48;100.00
10824;BME280;39116;59.332;18.034;2023-04-26T00:14:26;99562.63;;;7.44;100.00
10824;BME280;39116;59.332;18.034;2023-04-26T00:16:48;99562.63;;;7.46;100.00
10824;BME280;39116;59.332;18.034;2023-04-26T00:19:10;99566.09;;;7.48;100.00
10824;BME280;39116;59.332;18.034;2023-04-26T00:21:32;99562.63;;;7.46;100.00
10824;BME280;39116;59.332;18.034;2023-04-26T00:23:55;99562.66;;;7.49;100.00
10824;BME280;39116;59.332;18.034;2023-04-26T00:26:18;99555.75;;;7.53;100.00
10824;BME280;39116;59.332;18.034;2023-04-26T00:28:40;99561.78;;;7.47;100.00
10824;BME280;39116;59.332;18.034;2023-04-26T00:31:02;99558.31;;;7.48;100.00
10824;BME280;39116;59.332;18.034;2023-04-26T00:33:24;99540.19;;;7.33;100.00
10824;BME280;39116;59.332;18.034;2023-04-26T00:35:46;99560.91;;;7.50;100.00
10824;BME280;39116;59.332;18.034;2023-04-26T00:38:08;99562.63;;;7.46;100.00
10824;BME280;39116;59.332;18.034;2023-04-26T00:40:31;99561.78;;;7.55;100.00
10824;BME280;39116;59.332;18.034;2023-04-26T00:42:56;99566.09;;;7.60;100.00
10824;BME280;39116;59.332;18.034;2023-04-26T00:45:18;99565.25;;;7.58;100.00
10824;BME280;39116;59.332;18.034;2023-04-26T00:47:40;99561.81;;;7.59;100.00
10824;BME280;39116;59.332;18.034;2023-04-26T00:50:02;99556.63;;;7.59;100.00
10824;BME280;39116;59.332;18.034;2023-04-26T00:52:25;99567.00;;;7.61;100.00
10824;BME280;39116;59.332;18.034;2023-04-26T00:54:47;99558.34;;;7.63;100.00
10824;BME280;39116;59.332;18.034;2023-04-26T00:57:12;99559.19;;;7.53;100.00
10824;BME280;39116;59.332;18.034;2023-04-26T00:59:34;99555.75;;;7.70;100.00
10824;BME280;39116;59.332;18.034;2023-04-26T01:01:56;99554.91;;;7.64;100.00
10824;BME280;39116;59.332;18.034;2023-04-26T01:04:18;99556.59;;;7.52;100.00
10824;BME280;39116;59.332;18.034;2023-04-26T01:06:40;99567.81;;;7.55;100.00
10824;BME280;39116;59.332;18.034;2023-04-26T01:09:03;99558.34;;;7.47;100.00
10824;BME280;39116;59.332;18.034;2023-04-26T01:11:27;99558.34;;;7.56;100.00
10824;BME280;39116;59.332;18.034;2023-04-26T01:13:51;99558.34;;;7.60;100.00
10824;BME280;39116;59.332;18.034;2023-04-26T01:16:14;99557.50;;;7.61;100.00
10824;BME280;39116;59.332;18.034;2023-04-26T01:18:36;99554.88;;;7.58;100.00
10824;BME280;39116;59.332;18.034;2023-04-26T01:20:58;99541.94;;;7.54;100.00
10824;BME280;39116;59.332;18.034;2023-04-26T01:23:21;99547.13;;;7.61;100.00
10824;BME280;39116;59.332;18.034;2023-04-26T01:25:43;99546.25;;;7.62;100.00
10824;BME280;39116;59.332;18.034;2023-04-26T01:28:05;99516.84;;;7.17;100.00
10824;BME280;39116;59.332;18.034;2023-04-26T01:30:27;99561.78;;;7.56;100.00
10824;BME280;39116;59.332;18.034;2023-04-26T01:32:49;99559.22;;;7.56;100.00
10824;BME280;39116;59.332;18.034;2023-04-26T01:35:11;99474.56;;;7.14;100.00
10824;BME280;39116;59.332;18.034;2023-04-26T01:37:33;99553.16;;;7.60;100.00
10824;BME280;39116;59.332;18.034;2023-04-26T01:39:56;99534.19;;;7.52;100.00
10824;BME280;39116;59.332;18.034;2023-04-26T01:42:18;99522.94;;;7.53;100.00
10824;BME280;39116;59.332;18.034;2023-04-26T01:44:40;99545.38;;;7.48;100.00
10824;BME280;39116;59.332;18.034;2023-04-26T01:47:02;99556.63;;;7.67;100.00
10824;BME280;39116;59.332;18.034;2023-04-26T01:49:24;99549.72;;;7.60;100.00
10824;BME280;39116;59.332;18.034;2023-04-26T01:51:45;99544.53;;;7.60;100.00
10824;BME280;39116;59.332;18.034;2023-04-26T01:54:07;99541.09;;;7.65;100.00
10824;BME280;39116;59.332;18.034;2023-04-26T01:56:31;99542.81;;;7.71;100.00
10824;BME280;39116;59.332;18.034;2023-04-26T01:58:53;99541.94;;;7.71;100.00
10824;BME280;39116;59.332;18.034;2023-04-26T02:01:16;99545.38;;;7.42;100.00
10824;BME280;39116;59.332;18.034;2023-04-26T02:03:37;99554.00;;;7.53;100.00
10824;BME280;39116;59.332;18.034;2023-04-26T02:05:59;99552.25;;;7.28;100.00
10824;BME280;39116;59.332;18.034;2023-04-26T02:08:21;99555.75;;;7.45;100.00
10824;BME280;39116;59.332;18.034;2023-04-26T02:10:43;99547.97;;;7.50;100.00
10824;BME280;39116;59.332;18.034;2023-04-26T02:13:08;99553.13;;;7.48;100.00
10824;BME280;39116;59.332;18.034;2023-04-26T02:15:30;99535.03;;;7.54;100.00
10824;BME280;39116;59.332;18.034;2023-04-26T02:17:51;99543.66;;;7.62;100.00
10824;BME280;39116;59.332;18.034;2023-04-26T02:20:15;99548.84;;;7.50;100.00
10824;BME280;39116;59.332;18.034;2023-04-26T02:22:37;99550.56;;;7.45;100.00
10824;BME280;39116;59.332;18.034;2023-04-26T02:24:59;99550.56;;;7.36;100.00
10824;BME280;39116;59.332;18.034;2023-04-26T02:27:21;99552.28;;;7.46;100.00
10824;BME280;39116;59.332;18.034;2023-04-26T02:29:44;99541.91;;;7.38;100.00
10824;BME280;39116;59.332;18.034;2023-04-26T02:32:06;99538.50;;;7.56;100.00
10824;BME280;39116;59.332;18.034;2023-04-26T02:34:28;99538.50;;;7.59;100.00
10824;BME280;39116;59.332;18.034;2023-04-26T02:36:50;99541.06;;;7.36;100.00
10824;BME280;39116;59.332;18.034;2023-04-26T02:39:12;99541.03;;;7.32;100.00
10824;BME280;39116;59.332;18.034;2023-04-26T02:41:34;99547.09;;;7.37;100.00
10824;BME280;39116;59.332;18.034;2023-04-26T02:43:56;99531.47;;;7.03;100.00
10824;BME280;39116;59.332;18.034;2023-04-26T02:46:19;99532.41;;;7.28;100.00
10824;BME280;39116;59.332;18.034;2023-04-26T02:48:41;99528.09;;;7.29;100.00
10824;BME280;39116;59.332;18.034;2023-04-26T02:51:04;99535.03;;;7.34;100.00
10824;BME280;39116;59.332;18.034;2023-04-26T02:53:26;99535.91;;;7.49;100.00
10824;BME280;39116;59.332;18.034;2023-04-26T02:55:47;99536.75;;;7.41;100.00
10824;BME280;39116;59.332;18.034;2023-04-26T02:58:10;99532.41;;;7.40;100.00
10824;BME280;39116;59.332;18.034;2023-04-26T03:00:32;99529.81;;;7.14;100.00
10824;BME280;39116;59.332;18.034;2023-04-26T03:02:56;99527.25;;;7.45;100.00
10824;BME280;39116;59.332;18.034;2023-04-26T03:05:18;99529.84;;;7.33;100.00
10824;BME280;39116;59.332;18.034;2023-04-26T03:07:40;99531.53;;;7.24;100.00
10824;BME280;39116;59.332;18.034;2023-04-26T03:10:02;99530.69;;;7.36;100.00
10824;BME280;39116;59.332;18.034;2023-04-26T03:12:24;99521.22;;;7.38;100.00
10824;BME280;39116;59.332;18.034;2023-04-26T03:14:46;99522.97;;;7.50;100.00
10824;BME280;39116;59.332;18.034;2023-04-26T03:17:08;99522.09;;;7.53;100.00
10824;BME280;39116;59.332;18.034;2023-04-26T03:19:31;99530.69;;;7.33;100.00
10824;BME280;39116;59.332;18.034;2023-04-26T03:21:53;99535.88;;;7.36;100.00
10824;BME280;39116;59.332;18.034;2023-04-26T03:24:16;99534.16;;;7.41;100.00
10824;BME280;39116;59.332;18.034;2023-04-26T03:26:37;99524.66;;;7.43;100.00
10824;BME280;39116;59.332;18.034;2023-04-26T03:29:01;99538.47;;;7.41;100.00
10824;BME280;39116;59.332;18.034;2023-04-26T03:31:23;99539.31;;;7.21;100.00
10824;BME280;39116;59.332;18.034;2023-04-26T03:33:45;99539.28;;;7.23;100.00
10824;BME280;39116;59.332;18.034;2023-04-26T03:36:08;99535.81;;;7.07;100.00
10824;BME280;39116;59.332;18.034;2023-04-26T03:38:30;99427.88;;;6.54;100.00
10824;BME280;39116;59.332;18.034;2023-04-26T03:40:52;99543.59;;;7.07;100.00
10824;BME280;39116;59.332;18.034;2023-04-26T03:43:14;99538.47;;;7.29;100.00
10824;BME280;39116;59.332;18.034;2023-04-26T03:45:36;99544.47;;;7.24;100.00
10824;BME280;39116;59.332;18.034;2023-04-26T03:47:57;99542.72;;;7.13;100.00
10824;BME280;39116;59.332;18.034;2023-04-26T03:50:19;99538.41;;;7.05;100.00
10824;BME280;39116;59.332;18.034;2023-04-26T03:52:43;99543.59;;;7.15;100.00
10824;BME280;39116;59.332;18.034;2023-04-26T03:55:06;99537.53;;;7.08;100.00
10824;BME280;39116;59.332;18.034;2023-04-26T03:57:29;99536.66;;;6.98;100.00
10824;BME280;39116;59.332;18.034;2023-04-26T03:59:51;99544.41;;;6.95;100.00
10824;BME280;39116;59.332;18.034;2023-04-26T04:02:13;99546.97;;;6.94;100.00
10824;BME280;39116;59.332;18.034;2023-04-26T04:04:35;99548.75;;;7.04;100.00
10824;BME280;39116;59.332;18.034;2023-04-26T04:06:57;99554.81;;;7.18;100.00
10824;BME280;39116;59.332;18.034;2023-04-26T04:09:21;99543.53;;;7.01;100.00
10824;BME280;39116;59.332;18.034;2023-04-26T04:11:43;99543.56;;;7.10;100.00
10824;BME280;39116;59.332;18.034;2023-04-26T04:14:06;99553.03;;;7.00;100.00
10824;BME280;39116;59.332;18.034;2023-04-26T04:16:28;99548.75;;;7.10;100.00
10824;BME280;39116;59.332;18.034;2023-04-26T04:18:49;99551.34;;;7.13;100.00
10824;BME280;39116;59.332;18.034;2023-04-26T04:21:11;99548.72;;;7.02;100.00
10824;BME280;39116;59.332;18.034;2023-04-26T04:23:33;99553.94;;;7.13;100.00
10824;BME280;39116;59.332;18.034;2023-04-26T04:25:57;99559.09;;;7.04;100.00
10824;BME280;39116;59.332;18.034;2023-04-26T04:28:18;99547.72;;;6.71;100.00
10824;BME280;39116;59.332;18.034;2023-04-26T04:30:42;99544.38;;;6.92;100.00
10824;BME280;39116;59.332;18.034;2023-04-26T04:33:05;99458.84;;;6.41;100.00
10824;BME280;39116;59.332;18.034;2023-04-26T04:35:29;99548.75;;;7.05;100.00
10824;BME280;39116;59.332;18.034;2023-04-26T04:37:52;99545.16;;;6.68;100.00
10824;BME280;39116;59.332;18.034;2023-04-26T04:40:16;99555.59;;;6.90;100.00
10824;BME280;39116;59.332;18.034;2023-04-26T04:42:39;99553.03;;;6.97;100.00
10824;BME280;39116;59.332;18.034;2023-04-26T04:45:01;99557.22;;;6.66;100.00
10824;BME280;39116;59.332;18.034;2023-04-26T04:47:24;99554.66;;;6.72;100.00
10824;BME280;39116;59.332;18.034;2023-04-26T04:49:46;99583.19;;;6.94;100.00
10824;BME280;39116;59.332;18.034;2023-04-26T04:52:08;99569.34;;;6.79;100.00
10824;BME280;39116;59.332;18.034;2023-04-26T04:54:30;99564.97;;;6.69;100.00
10824;BME280;39116;59.332;18.034;2023-04-26T04:56:52;99559.00;;;6.85;100.00
10824;BME280;39116;59.332;18.034;2023-04-26T04:59:15;99564.94;;;6.63;100.00
10824;BME280;39116;59.332;18.034;2023-04-26T05:01:37;99567.59;;;6.78;100.00
10824;BME280;39116;59.332;18.034;2023-04-26T05:03:59;99539.06;;;6.55;100.00
10824;BME280;39116;59.332;18.034;2023-04-26T05:06:21;99565.59;;;6.29;100.00
10824;BME280;39116;59.332;18.034;2023-04-26T05:08:43;99562.31;;;6.58;100.00
10824;BME280;39116;59.332;18.034;2023-04-26T05:11:05;99566.59;;;6.53;100.00
10824;BME280;39116;59.332;18.034;2023-04-26T05:13:27;99564.78;;;6.32;100.00
10824;BME280;39116;59.332;18.034;2023-04-26T05:15:50;99567.47;;;6.50;100.00
10824;BME280;39116;59.332;18.034;2023-04-26T05:18:12;99558.91;;;6.61;100.00
10824;BME280;39116;59.332;18.034;2023-04-26T05:20:34;99571.06;;;6.82;100.00
10824;BME280;39116;59.332;18.034;2023-04-26T05:22:56;99570.97;;;6.59;100.00
10824;BME280;39116;59.332;18.034;2023-04-26T05:25:18;99571.06;;;6.77;100.00
10824;BME280;39116;59.332;18.034;2023-04-26T05:27:41;99571.91;;;6.79;100.00
10824;BME280;39116;59.332;18.034;2023-04-26T05:30:03;99573.53;;;6.56;100.00
10824;BME280;39116;59.332;18.034;2023-04-26T05:32:27;99565.94;;;6.93;100.00
10824;BME280;39116;59.332;18.034;2023-04-26T05:34:49;99569.38;;;6.92;100.00
10824;BME280;39116;59.332;18.034;2023-04-26T05:37:11;99565.84;;;6.71;100.00
10824;BME280;39116;59.332;18.034;2023-04-26T05:39:33;99578.88;;;6.94;100.00
10824;BME280;39116;59.332;18.034;2023-04-26T05:41:55;99570.31;;;7.09;100.00
10824;BME280;39116;59.332;18.034;2023-04-26T05:44:17;99573.78;;;7.16;100.00
10824;BME280;39116;59.332;18.034;2023-04-26T05:46:39;99569.41;;;7.01;100.00
10824;BME280;39116;59.332;18.034;2023-04-26T05:49:02;99577.25;;;7.21;100.00
10824;BME280;39116;59.332;18.034;2023-04-26T05:51:24;99576.28;;;6.88;100.00
10824;BME280;39116;59.332;18.034;2023-04-26T05:53:47;99578.94;;;7.03;100.00
10824;BME280;39116;59.332;18.034;2023-04-26T05:56:09;99569.53;;;7.27;100.00
10824;BME280;39116;59.332;18.034;2023-04-26T05:58:31;99563.44;;;7.14;100.00
10824;BME280;39116;59.332;18.034;2023-04-26T06:00:54;99572.94;;;7.20;100.00
10824;BME280;39116;59.332;18.034;2023-04-26T06:03:16;99575.56;;;7.34;100.00
10824;BME280;39116;59.332;18.034;2023-04-26T06:05:40;99566.94;;;7.27;100.00
10824;BME280;39116;59.332;18.034;2023-04-26T06:08:01;99571.28;;;7.42;100.00
10824;BME280;39116;59.332;18.034;2023-04-26T06:10:23;99563.47;;;7.31;100.00
10824;BME280;39116;59.332;18.034;2023-04-26T06:12:45;99566.06;;;7.33;100.00
10824;BME280;39116;59.332;18.034;2023-04-26T06:15:08;99558.34;;;7.62;100.00
10824;BME280;39116;59.332;18.034;2023-04-26T06:17:30;99554.84;;;7.31;100.00
10824;BME280;39116;59.332;18.034;2023-04-26T06:19:53;99558.31;;;7.48;100.00
10824;BME280;39116;59.332;18.034;2023-04-26T06:22:16;99552.28;;;7.57;100.00
10824;BME280;39116;59.332;18.034;2023-04-26T06:24:38;99555.75;;;7.63;100.00
10824;BME280;39116;59.332;18.034;2023-04-26T06:27:00;99551.47;;;7.69;100.00
10824;BME280;39116;59.332;18.034;2023-04-26T06:29:22;99550.56;;;7.45;100.00
10824;BME280;39116;59.332;18.034;2023-04-26T06:31:44;99553.19;;;7.68;100.00
10824;BME280;39116;59.332;18.034;2023-04-26T06:34:06;99552.28;;;7.40;100.00
10824;BME280;39116;59.332;18.034;2023-04-26T06:36:28;99553.19;;;7.65;100.00
10824;BME280;39116;59.332;18.034;2023-04-26T06:38:52;99555.75;;;7.63;100.00
10824;BME280;39116;59.332;18.034;2023-04-26T06:41:14;99559.19;;;7.53;100.00
10824;BME280;39116;59.332;18.034;2023-04-26T06:43:35;99563.53;;;7.54;100.00
10824;BME280;39116;59.332;18.034;2023-04-26T06:45:57;99563.53;;;7.47;100.00
10824;BME280;39116;59.332;18.034;2023-04-26T06:48:19;99569.53;;;7.27;100.00
10824;BME280;39116;59.332;18.034;2023-04-26T06:50:41;99568.63;;;7.28;100.00
10824;BME280;39116;59.332;18.034;2023-04-26T06:53:03;99574.66;;;7.16;100.00
10824;BME280;39116;59.332;18.034;2023-04-26T06:55:27;99579.91;;;7.47;100.00
10824;BME280;39116;59.332;18.034;2023-04-26T06:57:49;99583.38;;;7.43;100.00
10824;BME280;39116;59.332;18.034;2023-04-26T07:00:12;99584.13;;;7.17;100.00
10824;BME280;39116;59.332;18.034;2023-04-26T07:02:34;99596.91;;;6.77;100.00
10824;BME280;39116;59.332;18.034;2023-04-26T07:04:56;99614.22;;;6.91;100.00
10824;BME280;39116;59.332;18.034;2023-04-26T07:07:18;99607.25;;;6.74;100.00
10824;BME280;39116;59.332;18.034;2023-04-26T07:09:40;99611.13;;;6.14;100.00
10824;BME280;39116;59.332;18.034;2023-04-26T07:12:03;99618.81;;;6.01;100.00
10824;BME280;39116;59.332;18.034;2023-04-26T07:14:25;99639.09;;;5.64;100.00
10824;BME280;39116;59.332;18.034;2023-04-26T07:16:47;99630.06;;;6.09;100.00
10824;BME280;39116;59.332;18.034;2023-04-26T07:19:09;99633.44;;;6.01;100.00
10824;BME280;39116;59.332;18.034;2023-04-26T07:21:31;99641.50;;;6.38;100.00
10824;BME280;39116;59.332;18.034;2023-04-26T07:23:53;99641.81;;;5.81;100.00
10824;BME280;39116;59.332;18.034;2023-04-26T07:26:16;99643.69;;;5.95;100.00
10824;BME280;39116;59.332;18.034;2023-04-26T07:28:39;99654.59;;;5.66;100.00
10824;BME280;39116;59.332;18.034;2023-04-26T07:31:01;99656.53;;;5.88;100.00
10824;BME280;39116;59.332;18.034;2023-04-26T07:33:23;99647.75;;;5.69;100.00
10824;BME280;39116;59.332;18.034;2023-04-26T07:35:52;99644.66;;;6.04;100.00
10824;BME280;39116;59.332;18.034;2023-04-26T07:38:14;99671.13;;;5.85;100.00
10824;BME280;39116;59.332;18.034;2023-04-26T07:40:39;99665.50;;;5.42;100.00
10824;BME280;39116;59.332;18.034;2023-04-26T07:43:02;99663.16;;;5.63;100.00
10824;BME280;39116;59.332;18.034;2023-04-26T07:45:26;99659.06;;;5.82;100.00
10824;BME280;39116;59.332;18.034;2023-04-26T07:47:47;99662.78;;;6.07;100.00
10824;BME280;39116;59.332;18.034;2023-04-26T07:50:10;99653.50;;;6.31;100.00
10824;BME280;39116;59.332;18.034;2023-04-26T07:52:32;99657.06;;;6.45;100.00
10824;BME280;39116;59.332;18.034;2023-04-26T07:54:54;99655.38;;;6.50;100.00
10824;BME280;39116;59.332;18.034;2023-04-26T07:57:16;99653.69;;;6.56;100.00
10824;BME280;39116;59.332;18.034;2023-04-26T07:59:38;99662.28;;;6.52;100.00
10824;BME280;39116;59.332;18.034;2023-04-26T08:02:01;99655.16;;;6.26;100.00
10824;BME280;39116;59.332;18.034;2023-04-26T08:04:30;99664.63;;;6.24;100.00
10824;BME280;39116;59.332;18.034;2023-04-26T08:06:53;99658.72;;;6.40;100.00
10824;BME280;39116;59.332;18.034;2023-04-26T08:09:16;99662.28;;;6.55;100.00
10824;BME280;39116;59.332;18.034;2023-04-26T08:11:38;99654.56;;;6.58;100.00
10824;BME280;39116;59.332;18.034;2023-04-26T08:14:01;99656.34;;;6.71;100.00
10824;BME280;39116;59.332;18.034;2023-04-26T08:16:23;99653.06;;;6.95;100.00
10824;BME280;39116;59.332;18.034;2023-04-26T08:18:46;99646.25;;;7.11;100.00
10824;BME280;39116;59.332;18.034;2023-04-26T08:21:08;99647.09;;;7.13;100.00
10824;BME280;39116;59.332;18.034;2023-04-26T08:23:32;99651.56;;;7.50;100.00
10824;BME280;39116;59.332;18.034;2023-04-26T08:25:55;99641.22;;;7.53;100.00
10824;BME280;39116;59.332;18.034;2023-04-26T08:28:17;99656.75;;;7.47;100.00
10824;BME280;39116;59.332;18.034;2023-04-26T08:30:39;99648.91;;;7.37;100.00
10824;BME280;39116;59.332;18.034;2023-04-26T08:33:01;99650.75;;;7.78;100.00
10824;BME280;39116;59.332;18.034;2023-04-26T08:35:24;99642.97;;;7.68;100.00
10824;BME280;39116;59.332;18.034;2023-04-26T08:37:46;99648.19;;;7.84;100.00
10824;BME280;39116;59.332;18.034;2023-04-26T08:40:09;99668.88;;;7.71;100.00
10824;BME280;39116;59.332;18.034;2023-04-26T08:42:31;99668.72;;;7.26;100.00
10824;BME280;39116;59.332;18.034;2023-04-26T08:44:54;99669.59;;;7.28;100.00
10824;BME280;39116;59.332;18.034;2023-04-26T08:47:18;99623.75;;;6.95;100.00
10824;BME280;39116;59.332;18.034;2023-04-26T08:49:43;99673.00;;;7.13;100.00
10824;BME280;39116;59.332;18.034;2023-04-26T08:52:08;99665.94;;;6.84;100.00
10824;BME280;39116;59.332;18.034;2023-04-26T08:54:31;99663.53;;;7.18;100.00
10824;BME280;39116;59.332;18.034;2023-04-26T08:56:57;99659.28;;;7.39;100.00
10824;BME280;39116;59.332;18.034;2023-04-26T08:59:20;99655.78;;;7.28;100.00
10824;BME280;39116;59.332;18.034;2023-04-26T09:01:43;99659.31;;;7.45;100.00
10824;BME280;39116;59.332;18.034;2023-04-26T09:04:05;99667.91;;;7.35;100.00
10824;BME280;39116;59.332;18.034;2023-04-26T09:06:28;99660.09;;;7.30;100.00
10824;BME280;39116;59.332;18.034;2023-04-26T09:08:53;99673.09;;;7.42;100.00
10824;BME280;39116;59.332;18.034;2023-04-26T09:11:16;99664.44;;;7.33;100.00
10824;BME280;39116;59.332;18.034;2023-04-26T09:13:38;99677.44;;;7.50;100.00
10824;BME280;39116;59.332;18.034;2023-04-26T09:16:00;99673.91;;;7.21;100.00
10824;BME280;39116;59.332;18.034;2023-04-26T09:18:22;99648.00;;;7.20;100.00
10824;BME280;39116;59.332;18.034;2023-04-26T09:20:45;99667.84;;;7.16;100.00
10824;BME280;39116;59.332;18.034;2023-04-26T09:23:08;99664.50;;;7.48;100.00
10824;BME280;39116;59.332;18.034;2023-04-26T09:25:32;99661.16;;;8.00;100.00
10824;BME280;39116;59.332;18.034;2023-04-26T09:27:54;99664.59;;;7.76;100.00
10824;BME280;39116;59.332;18.034;2023-04-26T09:30:17;99659.34;;;7.60;100.00
10824;BME280;39116;59.332;18.034;2023-04-26T09:32:48;99654.22;;;7.85;100.00
10824;BME280;39116;59.332;18.034;2023-04-26T09:35:21;99661.16;;;7.83;100.00
10824;BME280;39116;59.332;18.034;2023-04-26T09:37:51;99665.50;;;8.15;100.00
10824;BME280;39116;59.332;18.034;2023-04-26T09:40:17;99662.94;;;8.36;100.00
10824;BME280;39116;59.332;18.034;2023-04-26T09:42:41;99649.94;;;8.16;100.00
10824;BME280;39116;59.332;18.034;2023-04-26T09:45:05;99671.50;;;7.89;100.00
10824;BME280;39116;59.332;18.034;2023-04-26T09:47:28;99668.03;;;7.75;100.00
10824;BME280;39116;59.332;18.034;2023-04-26T09:49:50;99663.59;;;7.38;100.00
10824;BME280;39116;59.332;18.034;2023-04-26T09:52:12;99668.91;;;7.89;100.00
10824;BME280;39116;59.332;18.034;2023-04-26T09:54:39;99667.22;;;8.13;100.00
10824;BME280;39116;59.332;18.034;2023-04-26T09:57:01;99668.91;;;7.75;100.00
10824;BME280;39116;59.332;18.034;2023-04-26T09:59:38;99657.72;;;7.93;100.00
10824;BME280;39116;59.332;18.034;2023-04-26T10:02:00;99656.84;;;8.23;100.00
10824;BME280;39116;59.332;18.034;2023-04-26T10:04:22;99665.50;;;8.38;100.00
10824;BME280;39116;59.332;18.034;2023-04-26T10:06:44;99673.28;;;8.12;100.00
10824;BME280;39116;59.332;18.034;2023-04-26T10:09:06;99666.34;;;7.92;100.00
10824;BME280;39116;59.332;18.034;2023-04-26T10:11:28;99662.88;;;7.95;100.00
10824;BME280;39116;59.332;18.034;2023-04-26T10:13:50;99589.25;;;7.05;100.00
10824;BME280;39116;59.332;18.034;2023-04-26T10:16:15;99668.00;;;7.65;100.00
10824;BME280;39116;59.332;18.034;2023-04-26T10:18:37;99677.59;;;8.14;100.00
10824;BME280;39116;59.332;18.034;2023-04-26T10:21:05;99673.28;;;8.36;100.00
10824;BME280;39116;59.332;18.034;2023-04-26T10:23:28;99673.28;;;8.02;100.00
10824;BME280;39116;59.332;18.034;2023-04-26T10:25:51;99678.44;;;7.99;100.00
10824;BME280;39116;59.332;18.034;2023-04-26T10:28:13;99682.78;;;8.19;100.00
10824;BME280;39116;59.332;18.034;2023-04-26T10:30:53;99683.63;;;7.90;100.00
10824;BME280;39116;59.332;18.034;2023-04-26T10:33:17;99686.19;;;7.78;100.00
10824;BME280;39116;59.332;18.034;2023-04-26T10:36:07;99677.53;;;7.76;100.00
10824;BME280;39116;59.332;18.034;2023-04-26T10:38:29;99681.91;;;8.11;100.00
10824;BME280;39116;59.332;18.034;2023-04-26T10:40:51;99671.53;;;8.41;100.00
10824;BME280;39116;59.332;18.034;2023-04-26T10:43:29;99674.13;;;8.41;100.00
10824;BME280;39116;59.332;18.034;2023-04-26T10:45:52;99681.94;;;8.72;100.00
10824;BME280;39116;59.332;18.034;2023-04-26T10:48:19;99691.44;;;8.75;100.00
10824;BME280;39116;59.332;18.034;2023-04-26T10:51:06;99687.97;;;8.87;100.00
10824;BME280;39116;59.332;18.034;2023-04-26T10:53:29;99683.63;;;9.01;100.00
10824;BME280;39116;59.332;18.034;2023-04-26T10:55:51;99683.66;;;8.89;100.00
10824;BME280;39116;59.332;18.034;2023-04-26T10:58:26;99704.41;;;8.89;100.00
10824;BME280;39116;59.332;18.034;2023-04-26T11:01:03;99702.66;;;8.41;100.00
10824;BME280;39116;59.332;18.034;2023-04-26T11:03:29;99697.50;;;8.66;100.00
10824;BME280;39116;59.332;18.034;2023-04-26T11:05:52;99703.56;;;8.74;100.00
10824;BME280;39116;59.332;18.034;2023-04-26T11:08:15;99703.56;;;8.50;100.00
10824;BME280;39116;59.332;18.034;2023-04-26T11:10:37;99697.50;;;8.85;100.00
10824;BME280;39116;59.332;18.034;2023-04-26T11:13:00;99704.41;;;8.86;100.00
10824;BME280;39116;59.332;18.034;2023-04-26T11:15:23;99707.84;;;8.91;100.00
10824;BME280;39116;59.332;18.034;2023-04-26T11:17:45;99729.47;;;8.93;100.00
10824;BME280;39116;59.332;18.034;2023-04-26T11:20:14;99715.59;;;9.14;98.09
10824;BME280;39116;59.332;18.034;2023-04-26T11:22:38;99716.47;;;9.13;94.37
10824;BME280;39116;59.332;18.034;2023-04-26T11:25:01;99723.38;;;9.09;95.15
10824;BME280;39116;59.332;18.034;2023-04-26T11:27:26;99710.47;;;8.92;98.39
10824;BME280;39116;59.332;18.034;2023-04-26T11:29:48;99714.69;;;9.26;98.20
10824;BME280;39116;59.332;18.034;2023-04-26T11:32:10;99730.38;;;8.46;100.00
10824;BME280;39116;59.332;18.034;2023-04-26T11:34:34;99728.66;;;8.48;100.00
10824;BME280;39116;59.332;18.034;2023-04-26T11:37:00;99730.38;;;8.46;100.00
10824;BME280;39116;59.332;18.034;2023-04-26T11:39:22;99727.78;;;8.69;100.00
10824;BME280;39116;59.332;18.034;2023-04-26T11:41:44;99727.72;;;9.07;100.00
10824;BME280;39116;59.332;18.034;2023-04-26T11:44:06;99733.81;;;8.86;100.00
10824;BME280;39116;59.332;18.034;2023-04-26T11:46:28;99726.03;;;8.91;100.00
10824;BME280;39116;59.332;18.034;2023-04-26T11:55:17;99722.56;;;8.59;100.00
10824;BME280;39116;59.332;18.034;2023-04-26T11:57:40;99741.63;;;8.83;100.00
10824;BME280;39116;59.332;18.034;2023-04-26T12:32:52;99734.66;;;9.10;91.40
10824;BME280;39116;59.332;18.034;2023-04-26T12:35:14;99738.09;;;9.07;91.64
10824;BME280;39116;59.332;18.034;2023-04-26T12:37:36;99745.94;;;8.64;94.99
10824;BME280;39116;59.332;18.034;2023-04-26T12:39:58;99752.84;;;8.81;93.79
10824;BME280;39116;59.332;18.034;2023-04-26T12:42:20;99668.09;;;8.27;89.05
10824;BME280;39116;59.332;18.034;2023-04-26T12:44:42;99747.63;;;9.05;84.44
10824;BME280;39116;59.332;18.034;2023-04-26T12:47:05;99745.91;;;9.10;83.77
10824;BME280;39116;59.332;18.034;2023-04-26T12:49:29;99725.97;;;9.28;82.20
10824;BME280;39116;59.332;18.034;2023-04-26T12:54:20;99735.19;;;9.90;78.96
10824;BME280;39116;59.332;18.034;2023-04-26T12:56:42;99750.13;;;9.51;79.83
10824;BME280;39116;59.332;18.034;2023-04-26T12:59:04;99721.63;;;9.28;79.94
10824;BME280;39116;59.332;18.034;2023-04-26T13:01:26;99721.53;;;9.51;78.75
10824;BME280;39116;59.332;18.034;2023-04-26T13:03:48;99727.59;;;9.55;79.80
10824;BME280;39116;59.332;18.034;2023-04-26T13:06:12;99739.41;;;10.15;75.35
10824;BME280;39116;59.332;18.034;2023-04-26T13:08:33;99730.66;;;10.36;nan